sensor_id;sensor_type;location;lat;lon;timestamp;P1;durP1;ratioP1;P2;durP2;ratioP2
21825;SDS011;11075;47.944;11.776;2024-03-02T00:01:35;16.37;;;9.70;;
21825;SDS011;11075;47.944;11.776;2024-03-02T00:04:03;16.80;;;9.80;;
21825;SDS011;11075;47.944;11.776;2024-03-02T00:06:33;16.87;;;9.63;;
21825;SDS011;11075;47.944;11.776;2024-03-02T00:09:01;19.70;;;10.70;;
21825;SDS011;11075;47.944;11.776;2024-03-02T00:11:28;17.77;;;10.73;;
21825;SDS011;11075;47.944;11.776;2024-03-02T00:13:55;17.97;;;9.83;;
21825;SDS011;11075;47.944;11.776;2024-03-02T00:16:22;18.73;;;10.17;;
21825;SDS011;11075;47.944;11.776;2024-03-02T00:18:50;20.53;;;10.27;;
21825;SDS011;11075;47.944;11.776;2024-03-02T00:21:17;20.20;;;11.10;;
21825;SDS011;11075;47.944;11.776;2024-03-02T00:23:47;23.27;;;11.00;;
21825;SDS011;11075;47.944;11.776;2024-03-02T00:26:15;19.67;;;10.97;;
21825;SDS011;11075;47.944;11.776;2024-03-02T00:28:42;19.27;;;10.03;;
21825;SDS011;11075;47.944;11.776;2024-03-02T00:31:11;21.33;;;10.57;;
21825;SDS011;11075;47.944;11.776;2024-03-02T00:36:07;17.63;;;10.30;;
21825;SDS011;11075;47.944;11.776;2024-03-02T00:38:35;15.60;;;9.80;;
21825;SDS011;11075;47.944;11.776;2024-03-02T00:41:19;18.07;;;10.40;;
21825;SDS011;11075;47.944;11.776;2024-03-02T00:46:33;20.17;;;10.83;;
21825;SDS011;11075;47.944;11.776;2024-03-02T00:49:04;21.60;;;11.83;;
21825;SDS011;11075;47.944;11.776;2024-03-02T00:51:53;20.17;;;11.63;;
21825;SDS011;11075;47.944;11.776;2024-03-02T00:54:22;23.73;;;12.70;;
21825;SDS011;11075;47.944;11.776;2024-03-02T00:56:51;20.93;;;11.90;;
21825;SDS011;11075;47.944;11.776;2024-03-02T00:59:18;24.10;;;12.60;;
21825;SDS011;11075;47.944;11.776;2024-03-02T01:01:45;22.63;;;12.43;;
21825;SDS011;11075;47.944;11.776;2024-03-02T01:04:12;25.67;;;13.47;;
21825;SDS011;11075;47.944;11.776;2024-03-02T01:06:41;26.70;;;13.47;;
21825;SDS011;11075;47.944;11.776;2024-03-02T01:09:09;25.13;;;13.27;;
21825;SDS011;11075;47.944;11.776;2024-03-02T01:11:36;24.97;;;12.80;;
21825;SDS011;11075;47.944;11.776;2024-03-02T01:14:02;26.67;;;13.93;;
21825;SDS011;11075;47.944;11.776;2024-03-02T01:16:30;28.93;;;14.67;;
21825;SDS011;11075;47.944;11.776;2024-03-02T01:18:57;27.73;;;14.67;;
21825;SDS011;11075;47.944;11.776;2024-03-02T01:21:24;30.27;;;14.63;;
21825;SDS011;11075;47.944;11.776;2024-03-02T01:23:51;27.17;;;14.30;;
21825;SDS011;11075;47.944;11.776;2024-03-02T01:26:17;32.20;;;16.63;;
21825;SDS011;11075;47.944;11.776;2024-03-02T01:28:44;31.33;;;15.70;;
21825;SDS011;11075;47.944;11.776;2024-03-02T01:31:11;40.20;;;17.80;;
21825;SDS011;11075;47.944;11.776;2024-03-02T01:33:38;30.47;;;14.83;;
21825;SDS011;11075;47.944;11.776;2024-03-02T01:36:05;39.17;;;17.60;;
21825;SDS011;11075;47.944;11.776;2024-03-02T01:38:31;43.17;;;19.37;;
21825;SDS011;11075;47.944;11.776;2024-03-02T01:40:58;50.00;;;20.30;;
21825;SDS011;11075;47.944;11.776;2024-03-02T01:43:25;59.97;;;24.73;;
21825;SDS011;11075;47.944;11.776;2024-03-02T01:45:52;56.13;;;24.60;;
21825;SDS011;11075;47.944;11.776;2024-03-02T01:48:20;61.93;;;24.63;;
21825;SDS011;11075;47.944;11.776;2024-03-02T01:50:48;64.83;;;27.73;;
21825;SDS011;11075;47.944;11.776;2024-03-02T01:53:15;58.70;;;27.50;;
21825;SDS011;11075;47.944;11.776;2024-03-02T01:55:41;53.03;;;24.37;;
21825;SDS011;11075;47.944;11.776;2024-03-02T01:58:08;58.13;;;27.33;;
21825;SDS011;11075;47.944;11.776;2024-03-02T02:00:35;57.57;;;27.27;;
21825;SDS011;11075;47.944;11.776;2024-03-02T02:03:02;56.40;;;25.70;;
21825;SDS011;11075;47.944;11.776;2024-03-02T02:05:29;49.10;;;23.07;;
21825;SDS011;11075;47.944;11.776;2024-03-02T02:07:58;54.07;;;25.03;;
21825;SDS011;11075;47.944;11.776;2024-03-02T02:10:25;52.73;;;24.63;;
21825;SDS011;11075;47.944;11.776;2024-03-02T02:12:52;53.90;;;26.03;;
21825;SDS011;11075;47.944;11.776;2024-03-02T02:15:22;50.77;;;25.83;;
21825;SDS011;11075;47.944;11.776;2024-03-02T02:17:54;53.53;;;26.23;;
21825;SDS011;11075;47.944;11.776;2024-03-02T02:20:21;54.10;;;24.37;;
21825;SDS011;11075;47.944;11.776;2024-03-02T02:22:55;39.63;;;20.97;;
21825;SDS011;11075;47.944;11.776;2024-03-02T02:25:22;42.13;;;20.53;;
21825;SDS011;11075;47.944;11.776;2024-03-02T02:27:50;36.97;;;18.07;;
21825;SDS011;11075;47.944;11.776;2024-03-02T02:30:27;36.90;;;18.00;;
21825;SDS011;11075;47.944;11.776;2024-03-02T02:32:56;40.30;;;18.10;;
21825;SDS011;11075;47.944;11.776;2024-03-02T02:35:23;45.73;;;20.73;;
21825;SDS011;11075;47.944;11.776;2024-03-02T02:37:53;51.53;;;23.13;;
21825;SDS011;11075;47.944;11.776;2024-03-02T02:40:21;52.53;;;26.50;;
21825;SDS011;11075;47.944;11.776;2024-03-02T02:42:49;60.23;;;28.10;;
21825;SDS011;11075;47.944;11.776;2024-03-02T02:45:16;61.13;;;26.10;;
21825;SDS011;11075;47.944;11.776;2024-03-02T02:47:44;65.07;;;28.83;;
21825;SDS011;11075;47.944;11.776;2024-03-02T02:50:11;60.97;;;28.97;;
21825;SDS011;11075;47.944;11.776;2024-03-02T02:52:39;60.73;;;27.77;;
21825;SDS011;11075;47.944;11.776;2024-03-02T02:55:08;67.67;;;29.43;;
21825;SDS011;11075;47.944;11.776;2024-03-02T02:57:36;63.60;;;28.97;;
21825;SDS011;11075;47.944;11.776;2024-03-02T03:00:09;66.53;;;26.70;;
21825;SDS011;11075;47.944;11.776;2024-03-02T03:02:41;61.93;;;28.10;;
21825;SDS011;11075;47.944;11.776;2024-03-02T03:05:09;67.23;;;28.43;;
21825;SDS011;11075;47.944;11.776;2024-03-02T03:07:39;63.13;;;28.10;;
21825;SDS011;11075;47.944;11.776;2024-03-02T03:10:06;59.77;;;26.97;;
21825;SDS011;11075;47.944;11.776;2024-03-02T03:12:34;62.87;;;26.53;;
21825;SDS011;11075;47.944;11.776;2024-03-02T03:15:01;50.97;;;25.03;;
21825;SDS011;11075;47.944;11.776;2024-03-02T03:17:29;52.07;;;24.90;;
21825;SDS011;11075;47.944;11.776;2024-03-02T03:19:56;46.63;;;22.83;;
21825;SDS011;11075;47.944;11.776;2024-03-02T03:22:23;52.60;;;24.10;;
21825;SDS011;11075;47.944;11.776;2024-03-02T03:24:50;39.30;;;21.30;;
21825;SDS011;11075;47.944;11.776;2024-03-02T03:27:16;45.73;;;22.57;;
21825;SDS011;11075;47.944;11.776;2024-03-02T03:29:43;47.83;;;23.43;;
21825;SDS011;11075;47.944;11.776;2024-03-02T03:32:10;46.20;;;21.60;;
21825;SDS011;11075;47.944;11.776;2024-03-02T03:34:37;46.40;;;22.80;;
21825;SDS011;11075;47.944;11.776;2024-03-02T03:37:04;49.10;;;23.20;;
21825;SDS011;11075;47.944;11.776;2024-03-02T03:39:31;49.93;;;22.37;;
21825;SDS011;11075;47.944;11.776;2024-03-02T03:41:58;42.70;;;21.93;;
21825;SDS011;11075;47.944;11.776;2024-03-02T03:44:24;43.37;;;22.33;;
21825;SDS011;11075;47.944;11.776;2024-03-02T03:46:51;43.63;;;22.77;;
21825;SDS011;11075;47.944;11.776;2024-03-02T03:49:18;43.80;;;21.63;;
21825;SDS011;11075;47.944;11.776;2024-03-02T03:51:45;45.57;;;22.17;;
21825;SDS011;11075;47.944;11.776;2024-03-02T03:54:12;47.60;;;23.77;;
21825;SDS011;11075;47.944;11.776;2024-03-02T03:56:39;41.27;;;21.60;;
21825;SDS011;11075;47.944;11.776;2024-03-02T03:59:05;44.53;;;23.00;;
21825;SDS011;11075;47.944;11.776;2024-03-02T04:01:32;45.13;;;20.73;;
21825;SDS011;11075;47.944;11.776;2024-03-02T04:04:00;40.33;;;21.07;;
21825;SDS011;11075;47.944;11.776;2024-03-02T04:06:30;46.60;;;19.73;;
21825;SDS011;11075;47.944;11.776;2024-03-02T04:08:57;44.33;;;21.13;;
21825;SDS011;11075;47.944;11.776;2024-03-02T04:11:23;41.60;;;21.00;;
21825;SDS011;11075;47.944;11.776;2024-03-02T04:13:50;49.47;;;22.80;;
21825;SDS011;11075;47.944;11.776;2024-03-02T04:16:19;46.70;;;22.73;;
21825;SDS011;11075;47.944;11.776;2024-03-02T04:18:45;43.07;;;21.57;;
21825;SDS011;11075;47.944;11.776;2024-03-02T04:21:12;49.33;;;23.03;;
21825;SDS011;11075;47.944;11.776;2024-03-02T04:23:39;51.87;;;23.43;;
21825;SDS011;11075;47.944;11.776;2024-03-02T04:26:06;47.07;;;22.20;;
21825;SDS011;11075;47.944;11.776;2024-03-02T04:28:33;46.03;;;22.37;;
21825;SDS011;11075;47.944;11.776;2024-03-02T04:30:59;45.93;;;22.60;;
21825;SDS011;11075;47.944;11.776;2024-03-02T04:33:26;47.67;;;23.23;;
21825;SDS011;11075;47.944;11.776;2024-03-02T04:35:53;47.23;;;22.70;;
21825;SDS011;11075;47.944;11.776;2024-03-02T04:38:20;43.83;;;21.77;;
21825;SDS011;11075;47.944;11.776;2024-03-02T04:40:47;49.00;;;22.60;;
21825;SDS011;11075;47.944;11.776;2024-03-02T04:43:13;41.60;;;20.10;;
21825;SDS011;11075;47.944;11.776;2024-03-02T04:45:42;42.23;;;21.03;;
21825;SDS011;11075;47.944;11.776;2024-03-02T04:48:09;44.20;;;20.77;;
21825;SDS011;11075;47.944;11.776;2024-03-02T04:50:36;46.23;;;21.00;;
21825;SDS011;11075;47.944;11.776;2024-03-02T04:53:03;44.50;;;20.80;;
21825;SDS011;11075;47.944;11.776;2024-03-02T04:55:30;42.87;;;20.77;;
21825;SDS011;11075;47.944;11.776;2024-03-02T04:58:06;42.20;;;19.90;;
21825;SDS011;11075;47.944;11.776;2024-03-02T05:00:33;43.43;;;21.50;;
21825;SDS011;11075;47.944;11.776;2024-03-02T05:03:01;43.53;;;19.33;;
21825;SDS011;11075;47.944;11.776;2024-03-02T05:05:29;43.73;;;19.37;;
21825;SDS011;11075;47.944;11.776;2024-03-02T05:07:56;42.83;;;21.63;;
21825;SDS011;11075;47.944;11.776;2024-03-02T05:10:22;46.67;;;22.50;;
21825;SDS011;11075;47.944;11.776;2024-03-02T05:12:50;55.87;;;23.20;;
21825;SDS011;11075;47.944;11.776;2024-03-02T05:15:24;46.63;;;22.83;;
21825;SDS011;11075;47.944;11.776;2024-03-02T05:17:51;52.50;;;23.50;;
21825;SDS011;11075;47.944;11.776;2024-03-02T05:20:18;49.90;;;22.40;;
21825;SDS011;11075;47.944;11.776;2024-03-02T05:22:45;52.57;;;22.37;;
21825;SDS011;11075;47.944;11.776;2024-03-02T05:25:12;52.30;;;23.13;;
21825;SDS011;11075;47.944;11.776;2024-03-02T05:27:38;45.17;;;22.70;;
21825;SDS011;11075;47.944;11.776;2024-03-02T05:30:06;45.67;;;21.83;;
21825;SDS011;11075;47.944;11.776;2024-03-02T05:32:33;46.80;;;21.63;;
21825;SDS011;11075;47.944;11.776;2024-03-02T05:35:00;48.03;;;22.33;;
21825;SDS011;11075;47.944;11.776;2024-03-02T05:37:27;45.43;;;22.07;;
21825;SDS011;11075;47.944;11.776;2024-03-02T05:39:54;51.83;;;22.23;;
21825;SDS011;11075;47.944;11.776;2024-03-02T05:42:21;53.10;;;23.00;;
21825;SDS011;11075;47.944;11.776;2024-03-02T05:44:48;48.03;;;22.20;;
21825;SDS011;11075;47.944;11.776;2024-03-02T05:47:15;51.37;;;21.90;;
21825;SDS011;11075;47.944;11.776;2024-03-02T05:49:42;48.93;;;23.13;;
21825;SDS011;11075;47.944;11.776;2024-03-02T05:52:09;53.80;;;23.80;;
21825;SDS011;11075;47.944;11.776;2024-03-02T05:54:37;49.70;;;22.47;;
21825;SDS011;11075;47.944;11.776;2024-03-02T05:57:05;47.60;;;22.53;;
21825;SDS011;11075;47.944;11.776;2024-03-02T05:59:53;46.77;;;23.67;;
21825;SDS011;11075;47.944;11.776;2024-03-02T06:02:20;48.93;;;23.67;;
21825;SDS011;11075;47.944;11.776;2024-03-02T06:04:47;48.63;;;20.80;;
21825;SDS011;11075;47.944;11.776;2024-03-02T06:07:13;45.20;;;22.10;;
21825;SDS011;11075;47.944;11.776;2024-03-02T06:09:40;48.77;;;22.47;;
21825;SDS011;11075;47.944;11.776;2024-03-02T06:12:07;48.30;;;23.67;;
21825;SDS011;11075;47.944;11.776;2024-03-02T06:14:34;44.73;;;22.23;;
21825;SDS011;11075;47.944;11.776;2024-03-02T06:17:01;42.73;;;21.03;;
21825;SDS011;11075;47.944;11.776;2024-03-02T06:19:28;44.27;;;21.90;;
21825;SDS011;11075;47.944;11.776;2024-03-02T06:21:55;52.03;;;23.37;;
21825;SDS011;11075;47.944;11.776;2024-03-02T06:24:22;47.90;;;22.60;;
21825;SDS011;11075;47.944;11.776;2024-03-02T06:26:48;52.07;;;23.30;;
21825;SDS011;11075;47.944;11.776;2024-03-02T06:29:15;44.03;;;22.93;;
21825;SDS011;11075;47.944;11.776;2024-03-02T06:31:42;49.67;;;21.67;;
21825;SDS011;11075;47.944;11.776;2024-03-02T06:34:09;43.97;;;22.07;;
21825;SDS011;11075;47.944;11.776;2024-03-02T06:36:36;46.43;;;22.60;;
21825;SDS011;11075;47.944;11.776;2024-03-02T06:39:03;45.43;;;21.93;;
21825;SDS011;11075;47.944;11.776;2024-03-02T06:41:30;43.33;;;21.90;;
21825;SDS011;11075;47.944;11.776;2024-03-02T06:43:57;44.23;;;22.03;;
21825;SDS011;11075;47.944;11.776;2024-03-02T06:46:26;46.03;;;22.23;;
21825;SDS011;11075;47.944;11.776;2024-03-02T06:48:53;45.07;;;21.83;;
21825;SDS011;11075;47.944;11.776;2024-03-02T06:51:20;39.63;;;20.30;;
21825;SDS011;11075;47.944;11.776;2024-03-02T06:53:47;47.33;;;22.27;;
21825;SDS011;11075;47.944;11.776;2024-03-02T06:56:14;50.00;;;24.23;;
21825;SDS011;11075;47.944;11.776;2024-03-02T06:58:41;54.53;;;23.93;;
21825;SDS011;11075;47.944;11.776;2024-03-02T07:01:09;49.70;;;24.07;;
21825;SDS011;11075;47.944;11.776;2024-03-02T07:03:36;48.93;;;23.80;;
21825;SDS011;11075;47.944;11.776;2024-03-02T07:06:03;48.83;;;23.80;;
21825;SDS011;11075;47.944;11.776;2024-03-02T07:08:31;51.23;;;23.23;;
21825;SDS011;11075;47.944;11.776;2024-03-02T07:10:57;52.53;;;24.83;;
21825;SDS011;11075;47.944;11.776;2024-03-02T07:13:24;50.33;;;23.67;;
21825;SDS011;11075;47.944;11.776;2024-03-02T07:15:52;55.93;;;25.87;;
21825;SDS011;11075;47.944;11.776;2024-03-02T07:18:31;56.37;;;25.13;;
21825;SDS011;11075;47.944;11.776;2024-03-02T07:20:58;51.80;;;23.93;;
21825;SDS011;11075;47.944;11.776;2024-03-02T07:23:27;51.67;;;24.90;;
21825;SDS011;11075;47.944;11.776;2024-03-02T07:25:54;52.20;;;23.23;;
21825;SDS011;11075;47.944;11.776;2024-03-02T07:28:26;56.10;;;24.17;;
21825;SDS011;11075;47.944;11.776;2024-03-02T07:33:27;51.93;;;24.20;;
21825;SDS011;11075;47.944;11.776;2024-03-02T07:35:54;49.90;;;23.60;;
21825;SDS011;11075;47.944;11.776;2024-03-02T07:38:29;50.63;;;24.73;;
21825;SDS011;11075;47.944;11.776;2024-03-02T07:40:57;48.30;;;23.10;;
21825;SDS011;11075;47.944;11.776;2024-03-02T07:43:24;40.13;;;20.73;;
21825;SDS011;11075;47.944;11.776;2024-03-02T07:45:51;39.87;;;19.07;;
21825;SDS011;11075;47.944;11.776;2024-03-02T07:48:18;36.87;;;18.73;;
21825;SDS011;11075;47.944;11.776;2024-03-02T07:50:45;36.20;;;17.37;;
21825;SDS011;11075;47.944;11.776;2024-03-02T07:53:12;29.90;;;16.43;;
21825;SDS011;11075;47.944;11.776;2024-03-02T07:55:39;30.37;;;16.53;;
21825;SDS011;11075;47.944;11.776;2024-03-02T07:58:06;27.10;;;14.83;;
21825;SDS011;11075;47.944;11.776;2024-03-02T08:00:33;26.43;;;14.83;;
21825;SDS011;11075;47.944;11.776;2024-03-02T08:03:00;28.30;;;15.10;;
21825;SDS011;11075;47.944;11.776;2024-03-02T08:05:28;27.27;;;15.47;;
21825;SDS011;11075;47.944;11.776;2024-03-02T08:07:54;31.50;;;15.60;;
21825;SDS011;11075;47.944;11.776;2024-03-02T08:10:21;29.07;;;16.07;;
21825;SDS011;11075;47.944;11.776;2024-03-02T08:12:48;31.77;;;18.07;;
21825;SDS011;11075;47.944;11.776;2024-03-02T08:15:15;33.57;;;18.77;;
21825;SDS011;11075;47.944;11.776;2024-03-02T08:17:42;29.60;;;16.77;;
21825;SDS011;11075;47.944;11.776;2024-03-02T08:20:15;31.60;;;17.83;;
21825;SDS011;11075;47.944;11.776;2024-03-02T08:22:42;31.90;;;16.83;;
21825;SDS011;11075;47.944;11.776;2024-03-02T08:25:09;30.43;;;17.57;;
21825;SDS011;11075;47.944;11.776;2024-03-02T08:27:36;28.50;;;17.67;;
21825;SDS011;11075;47.944;11.776;2024-03-02T08:30:05;31.73;;;17.70;;
21825;SDS011;11075;47.944;11.776;2024-03-02T08:32:34;27.47;;;14.77;;
21825;SDS011;11075;47.944;11.776;2024-03-02T08:35:01;25.57;;;13.97;;
21825;SDS011;11075;47.944;11.776;2024-03-02T08:37:28;22.73;;;13.77;;
21825;SDS011;11075;47.944;11.776;2024-03-02T08:39:55;22.80;;;14.33;;
21825;SDS011;11075;47.944;11.776;2024-03-02T08:42:22;24.17;;;14.57;;
21825;SDS011;11075;47.944;11.776;2024-03-02T08:44:49;27.50;;;14.97;;
21825;SDS011;11075;47.944;11.776;2024-03-02T08:47:16;24.53;;;14.70;;
21825;SDS011;11075;47.944;11.776;2024-03-02T08:49:43;23.97;;;14.03;;
21825;SDS011;11075;47.944;11.776;2024-03-02T08:52:10;25.47;;;14.23;;
21825;SDS011;11075;47.944;11.776;2024-03-02T08:54:37;21.30;;;13.27;;
21825;SDS011;11075;47.944;11.776;2024-03-02T08:57:05;23.10;;;13.63;;
21825;SDS011;11075;47.944;11.776;2024-03-02T08:59:32;22.27;;;14.10;;
21825;SDS011;11075;47.944;11.776;2024-03-02T09:01:59;21.00;;;13.80;;
21825;SDS011;11075;47.944;11.776;2024-03-02T09:04:26;23.07;;;12.93;;
21825;SDS011;11075;47.944;11.776;2024-03-02T09:07:00;23.97;;;13.20;;
21825;SDS011;11075;47.944;11.776;2024-03-02T09:09:27;20.93;;;12.80;;
21825;SDS011;11075;47.944;11.776;2024-03-02T09:11:54;20.83;;;13.10;;
21825;SDS011;11075;47.944;11.776;2024-03-02T09:14:21;21.33;;;12.98;;
21825;SDS011;11075;47.944;11.776;2024-03-02T09:16:48;21.67;;;12.68;;
21825;SDS011;11075;47.944;11.776;2024-03-02T09:19:15;16.27;;;11.77;;
21825;SDS011;11075;47.944;11.776;2024-03-02T09:21:42;21.33;;;11.98;;
21825;SDS011;11075;47.944;11.776;2024-03-02T09:24:10;16.35;;;11.15;;
21825;SDS011;11075;47.944;11.776;2024-03-02T09:26:39;14.05;;;10.20;;
21825;SDS011;11075;47.944;11.776;2024-03-02T09:29:06;18.15;;;11.35;;
21825;SDS011;11075;47.944;11.776;2024-03-02T09:31:33;12.52;;;8.20;;
21825;SDS011;11075;47.944;11.776;2024-03-02T09:34:05;13.65;;;8.43;;
21825;SDS011;11075;47.944;11.776;2024-03-02T09:36:32;12.02;;;8.50;;
21825;SDS011;11075;47.944;11.776;2024-03-02T09:38:59;11.48;;;8.38;;
21825;SDS011;11075;47.944;11.776;2024-03-02T09:41:25;16.30;;;9.82;;
21825;SDS011;11075;47.944;11.776;2024-03-02T09:43:53;15.07;;;9.50;;
21825;SDS011;11075;47.944;11.776;2024-03-02T09:46:20;13.10;;;9.00;;
21825;SDS011;11075;47.944;11.776;2024-03-02T09:48:47;14.85;;;10.00;;
21825;SDS011;11075;47.944;11.776;2024-03-02T09:51:14;14.32;;;9.60;;
21825;SDS011;11075;47.944;11.776;2024-03-02T09:53:42;16.35;;;11.30;;
21825;SDS011;11075;47.944;11.776;2024-03-02T09:56:09;16.08;;;11.10;;
21825;SDS011;11075;47.944;11.776;2024-03-02T09:58:36;18.08;;;12.30;;
21825;SDS011;11075;47.944;11.776;2024-03-02T10:01:05;19.20;;;12.85;;
21825;SDS011;11075;47.944;11.776;2024-03-02T10:03:33;18.23;;;12.82;;
21825;SDS011;11075;47.944;11.776;2024-03-02T10:08:59;20.00;;;13.57;;
21825;SDS011;11075;47.944;11.776;2024-03-02T10:11:29;15.27;;;12.52;;
21825;SDS011;11075;47.944;11.776;2024-03-02T10:14:11;15.18;;;11.50;;
21825;SDS011;11075;47.944;11.776;2024-03-02T10:16:40;14.45;;;10.30;;
21825;SDS011;11075;47.944;11.776;2024-03-02T10:21:51;14.90;;;11.10;;
21825;SDS011;11075;47.944;11.776;2024-03-02T10:24:20;25.10;;;14.35;;
21825;SDS011;11075;47.944;11.776;2024-03-02T10:26:48;17.90;;;12.13;;
21825;SDS011;11075;47.944;11.776;2024-03-02T10:29:15;27.08;;;14.95;;
21825;SDS011;11075;47.944;11.776;2024-03-02T10:31:46;14.57;;;9.90;;
21825;SDS011;11075;47.944;11.776;2024-03-02T10:34:13;14.75;;;10.68;;
21825;SDS011;11075;47.944;11.776;2024-03-02T10:36:43;15.95;;;10.50;;
21825;SDS011;11075;47.944;11.776;2024-03-02T10:39:12;13.82;;;10.00;;
21825;SDS011;11075;47.944;11.776;2024-03-02T10:41:40;11.45;;;9.32;;
21825;SDS011;11075;47.944;11.776;2024-03-02T10:44:08;13.73;;;9.07;;
21825;SDS011;11075;47.944;11.776;2024-03-02T10:46:36;17.40;;;11.98;;
21825;SDS011;11075;47.944;11.776;2024-03-02T10:49:04;13.63;;;8.02;;
21825;SDS011;11075;47.944;11.776;2024-03-02T10:51:34;16.00;;;9.55;;
21825;SDS011;11075;47.944;11.776;2024-03-02T10:54:03;15.50;;;10.73;;
21825;SDS011;11075;47.944;11.776;2024-03-02T10:56:31;11.98;;;8.82;;
21825;SDS011;11075;47.944;11.776;2024-03-02T11:01:31;12.85;;;9.10;;
21825;SDS011;11075;47.944;11.776;2024-03-02T11:03:59;14.40;;;10.35;;
21825;SDS011;11075;47.944;11.776;2024-03-02T11:06:31;15.35;;;10.05;;
21825;SDS011;11075;47.944;11.776;2024-03-02T11:09:00;13.25;;;9.90;;
21825;SDS011;11075;47.944;11.776;2024-03-02T11:11:40;23.08;;;13.95;;
21825;SDS011;11075;47.944;11.776;2024-03-02T11:14:16;13.60;;;8.65;;
21825;SDS011;11075;47.944;11.776;2024-03-02T11:16:46;13.88;;;9.20;;
21825;SDS011;11075;47.944;11.776;2024-03-02T11:19:14;14.00;;;9.65;;
21825;SDS011;11075;47.944;11.776;2024-03-02T11:21:43;14.35;;;10.68;;
21825;SDS011;11075;47.944;11.776;2024-03-02T11:26:47;18.95;;;10.75;;
21825;SDS011;11075;47.944;11.776;2024-03-02T11:32:03;13.63;;;9.90;;
21825;SDS011;11075;47.944;11.776;2024-03-02T11:34:31;11.20;;;8.52;;
21825;SDS011;11075;47.944;11.776;2024-03-02T11:37:02;14.38;;;8.85;;
21825;SDS011;11075;47.944;11.776;2024-03-02T11:39:31;12.85;;;7.93;;
21825;SDS011;11075;47.944;11.776;2024-03-02T11:41:58;10.52;;;7.88;;
21825;SDS011;11075;47.944;11.776;2024-03-02T11:44:26;13.68;;;8.63;;
21825;SDS011;11075;47.944;11.776;2024-03-02T11:47:01;12.38;;;8.88;;
21825;SDS011;11075;47.944;11.776;2024-03-02T11:52:18;8.88;;;6.15;;
21825;SDS011;11075;47.944;11.776;2024-03-02T11:54:46;8.88;;;6.20;;
21825;SDS011;11075;47.944;11.776;2024-03-02T11:57:14;7.85;;;6.18;;
21825;SDS011;11075;47.944;11.776;2024-03-02T11:59:43;9.52;;;6.40;;
21825;SDS011;11075;47.944;11.776;2024-03-02T12:02:17;10.73;;;7.40;;
21825;SDS011;11075;47.944;11.776;2024-03-02T12:04:45;10.07;;;6.82;;
21825;SDS011;11075;47.944;11.776;2024-03-02T12:07:23;10.63;;;7.65;;
21825;SDS011;11075;47.944;11.776;2024-03-02T12:10:00;10.85;;;8.50;;
21825;SDS011;11075;47.944;11.776;2024-03-02T12:12:28;13.02;;;7.70;;
21825;SDS011;11075;47.944;11.776;2024-03-02T12:14:55;12.82;;;8.10;;
21825;SDS011;11075;47.944;11.776;2024-03-02T12:17:22;9.38;;;7.60;;
21825;SDS011;11075;47.944;11.776;2024-03-02T12:19:49;9.10;;;6.97;;
21825;SDS011;11075;47.944;11.776;2024-03-02T12:22:16;11.23;;;8.00;;
21825;SDS011;11075;47.944;11.776;2024-03-02T12:24:44;11.90;;;8.25;;
21825;SDS011;11075;47.944;11.776;2024-03-02T12:27:14;11.63;;;8.45;;
21825;SDS011;11075;47.944;11.776;2024-03-02T12:29:50;14.77;;;7.72;;
21825;SDS011;11075;47.944;11.776;2024-03-02T12:32:18;10.05;;;6.85;;
21825;SDS011;11075;47.944;11.776;2024-03-02T12:34:46;9.30;;;6.45;;
21825;SDS011;11075;47.944;11.776;2024-03-02T12:37:13;11.35;;;7.30;;
21825;SDS011;11075;47.944;11.776;2024-03-02T12:39:43;9.93;;;7.22;;
21825;SDS011;11075;47.944;11.776;2024-03-02T12:42:11;9.20;;;6.95;;
21825;SDS011;11075;47.944;11.776;2024-03-02T12:44:39;10.73;;;7.15;;
21825;SDS011;11075;47.944;11.776;2024-03-02T12:47:06;8.27;;;6.18;;
21825;SDS011;11075;47.944;11.776;2024-03-02T12:49:33;8.27;;;6.40;;
21825;SDS011;11075;47.944;11.776;2024-03-02T12:52:01;10.52;;;6.80;;
21825;SDS011;11075;47.944;11.776;2024-03-02T12:54:29;9.20;;;7.15;;
21825;SDS011;11075;47.944;11.776;2024-03-02T12:56:56;11.00;;;8.00;;
21825;SDS011;11075;47.944;11.776;2024-03-02T12:59:23;12.40;;;8.65;;
21825;SDS011;11075;47.944;11.776;2024-03-02T13:01:53;14.05;;;9.32;;
21825;SDS011;11075;47.944;11.776;2024-03-02T13:04:24;15.45;;;10.27;;
21825;SDS011;11075;47.944;11.776;2024-03-02T13:06:55;12.18;;;9.63;;
21825;SDS011;11075;47.944;11.776;2024-03-02T13:09:25;12.98;;;9.50;;
21825;SDS011;11075;47.944;11.776;2024-03-02T13:11:53;13.40;;;9.40;;
21825;SDS011;11075;47.944;11.776;2024-03-02T13:14:21;16.10;;;10.48;;
21825;SDS011;11075;47.944;11.776;2024-03-02T13:16:51;14.70;;;10.73;;
21825;SDS011;11075;47.944;11.776;2024-03-02T13:19:19;14.93;;;11.00;;
21825;SDS011;11075;47.944;11.776;2024-03-02T13:21:46;20.65;;;11.93;;
21825;SDS011;11075;47.944;11.776;2024-03-02T13:24:13;14.80;;;11.20;;
21825;SDS011;11075;47.944;11.776;2024-03-02T13:26:40;21.25;;;13.32;;
21825;SDS011;11075;47.944;11.776;2024-03-02T13:29:07;19.73;;;13.07;;
21825;SDS011;11075;47.944;11.776;2024-03-02T13:31:34;19.48;;;12.68;;
21825;SDS011;11075;47.944;11.776;2024-03-02T13:34:01;20.00;;;13.52;;
21825;SDS011;11075;47.944;11.776;2024-03-02T13:36:28;22.67;;;12.57;;
21825;SDS011;11075;47.944;11.776;2024-03-02T13:38:55;18.55;;;12.90;;
21825;SDS011;11075;47.944;11.776;2024-03-02T13:41:24;19.42;;;13.57;;
21825;SDS011;11075;47.944;11.776;2024-03-02T13:43:51;22.35;;;13.52;;
21825;SDS011;11075;47.944;11.776;2024-03-02T13:46:20;19.80;;;13.07;;
21825;SDS011;11075;47.944;11.776;2024-03-02T13:48:47;20.27;;;13.13;;
21825;SDS011;11075;47.944;11.776;2024-03-02T13:51:14;20.90;;;13.30;;
21825;SDS011;11075;47.944;11.776;2024-03-02T13:53:41;20.15;;;13.60;;
21825;SDS011;11075;47.944;11.776;2024-03-02T13:56:08;21.98;;;14.45;;
21825;SDS011;11075;47.944;11.776;2024-03-02T13:58:35;19.25;;;13.27;;
21825;SDS011;11075;47.944;11.776;2024-03-02T14:01:01;21.23;;;14.27;;
21825;SDS011;11075;47.944;11.776;2024-03-02T14:03:31;19.88;;;14.50;;
21825;SDS011;11075;47.944;11.776;2024-03-02T14:05:58;19.75;;;14.48;;
21825;SDS011;11075;47.944;11.776;2024-03-02T14:08:25;20.35;;;14.00;;
21825;SDS011;11075;47.944;11.776;2024-03-02T14:10:52;19.52;;;13.77;;
21825;SDS011;11075;47.944;11.776;2024-03-02T14:13:20;21.35;;;14.68;;
21825;SDS011;11075;47.944;11.776;2024-03-02T14:15:47;22.33;;;15.05;;
21825;SDS011;11075;47.944;11.776;2024-03-02T14:18:15;21.35;;;13.52;;
21825;SDS011;11075;47.944;11.776;2024-03-02T14:20:42;18.25;;;14.07;;
21825;SDS011;11075;47.944;11.776;2024-03-02T14:23:11;21.75;;;15.25;;
21825;SDS011;11075;47.944;11.776;2024-03-02T14:25:38;20.25;;;15.23;;
21825;SDS011;11075;47.944;11.776;2024-03-02T14:28:05;21.52;;;15.18;;
21825;SDS011;11075;47.944;11.776;2024-03-02T14:30:52;21.95;;;14.18;;
21825;SDS011;11075;47.944;11.776;2024-03-02T14:33:19;22.38;;;14.35;;
21825;SDS011;11075;47.944;11.776;2024-03-02T14:35:46;20.48;;;13.63;;
21825;SDS011;11075;47.944;11.776;2024-03-02T14:38:13;20.40;;;13.50;;
21825;SDS011;11075;47.944;11.776;2024-03-02T14:40:40;21.40;;;13.43;;